sensor_id;sensor_type;location;lat;lon;timestamp;P1;durP1;ratioP1;P2;durP2;ratioP2
12587;SDS011;6359;51.450;7.346;2023-04-24T00:01:20;1.25;;;0.80;;
12587;SDS011;6359;51.450;7.346;2023-04-24T00:03:47;3.40;;;0.80;;
12587;SDS011;6359;51.450;7.346;2023-04-24T00:06:14;4.22;;;1.00;;
12587;SDS011;6359;51.450;7.346;2023-04-24T00:08:41;0.68;;;0.60;;
12587;SDS011;6359;51.450;7.346;2023-04-24T00:11:08;3.35;;;0.98;;
12587;SDS011;6359;51.450;7.346;2023-04-24T00:13:37;0.80;;;0.80;;
12587;SDS011;6359;51.450;7.346;2023-04-24T00:16:04;1.90;;;0.90;;
12587;SDS011;6359;51.450;7.346;2023-04-24T00:18:31;0.95;;;0.77;;
12587;SDS011;6359;51.450;7.346;2023-04-24T00:20:58;2.20;;;1.00;;
12587;SDS011;6359;51.450;7.346;2023-04-24T00:23:25;1.52;;;1.15;;
12587;SDS011;6359;51.450;7.346;2023-04-24T00:25:52;1.08;;;1.00;;
12587;SDS011;6359;51.450;7.346;2023-04-24T00:28:18;1.58;;;1.40;;
12587;SDS011;6359;51.450;7.346;2023-04-24T00:30:47;6.05;;;1.50;;
12587;SDS011;6359;51.450;7.346;2023-04-24T00:33:14;3.47;;;1.38;;
12587;SDS011;6359;51.450;7.346;2023-04-24T00:35:40;1.33;;;1.13;;
12587;SDS011;6359;51.450;7.346;2023-04-24T00:38:07;1.05;;;1.05;;
12587;SDS011;6359;51.450;7.346;2023-04-24T00:40:34;1.63;;;1.10;;
12587;SDS011;6359;51.450;7.346;2023-04-24T00:43:01;1.40;;;1.30;;
12587;SDS011;6359;51.450;7.346;2023-04-24T00:45:28;1.70;;;1.38;;
12587;SDS011;6359;51.450;7.346;2023-04-24T00:47:57;1.25;;;1.15;;
12587;SDS011;6359;51.450;7.346;2023-04-24T00:50:25;1.35;;;1.25;;
12587;SDS011;6359;51.450;7.346;2023-04-24T00:52:52;1.67;;;1.13;;
12587;SDS011;6359;51.450;7.346;2023-04-24T00:55:19;2.25;;;1.13;;
12587;SDS011;6359;51.450;7.346;2023-04-24T00:57:46;1.48;;;1.38;;
12587;SDS011;6359;51.450;7.346;2023-04-24T01:00:14;1.90;;;1.70;;
12587;SDS011;6359;51.450;7.346;2023-04-24T01:02:42;2.75;;;1.30;;
12587;SDS011;6359;51.450;7.346;2023-04-24T01:05:12;2.75;;;1.70;;
12587;SDS011;6359;51.450;7.346;2023-04-24T01:07:40;3.60;;;1.80;;
12587;SDS011;6359;51.450;7.346;2023-04-24T01:10:10;3.17;;;1.83;;
12587;SDS011;6359;51.450;7.346;2023-04-24T01:12:37;4.07;;;2.00;;
12587;SDS011;6359;51.450;7.346;2023-04-24T01:15:05;6.00;;;1.80;;
12587;SDS011;6359;51.450;7.346;2023-04-24T01:17:33;3.03;;;1.67;;
12587;SDS011;6359;51.450;7.346;2023-04-24T01:20:00;2.80;;;1.83;;
12587;SDS011;6359;51.450;7.346;2023-04-24T01:22:32;2.95;;;1.50;;
12587;SDS011;6359;51.450;7.346;2023-04-24T01:24:59;1.17;;;1.02;;
12587;SDS011;6359;51.450;7.346;2023-04-24T01:27:26;2.55;;;1.17;;
12587;SDS011;6359;51.450;7.346;2023-04-24T01:29:53;1.23;;;1.10;;
12587;SDS011;6359;51.450;7.346;2023-04-24T01:32:20;1.40;;;1.05;;
12587;SDS011;6359;51.450;7.346;2023-04-24T01:34:48;1.10;;;1.00;;
12587;SDS011;6359;51.450;7.346;2023-04-24T01:37:15;3.33;;;1.33;;
12587;SDS011;6359;51.450;7.346;2023-04-24T01:39:43;0.90;;;0.90;;
12587;SDS011;6359;51.450;7.346;2023-04-24T01:42:10;1.30;;;1.20;;
12587;SDS011;6359;51.450;7.346;2023-04-24T01:44:39;2.10;;;1.17;;
12587;SDS011;6359;51.450;7.346;2023-04-24T01:47:06;2.90;;;1.30;;
12587;SDS011;6359;51.450;7.346;2023-04-24T01:49:34;2.63;;;1.30;;
12587;SDS011;6359;51.450;7.346;2023-04-24T01:52:01;1.70;;;1.20;;
12587;SDS011;6359;51.450;7.346;2023-04-24T01:54:27;1.23;;;1.00;;
12587;SDS011;6359;51.450;7.346;2023-04-24T01:56:56;2.92;;;1.50;;
12587;SDS011;6359;51.450;7.346;2023-04-24T01:59:23;2.42;;;1.17;;
12587;SDS011;6359;51.450;7.346;2023-04-24T02:01:53;1.75;;;1.65;;
12587;SDS011;6359;51.450;7.346;2023-04-24T02:04:20;2.70;;;1.63;;
12587;SDS011;6359;51.450;7.346;2023-04-24T02:06:47;1.58;;;1.45;;
12587;SDS011;6359;51.450;7.346;2023-04-24T02:09:14;2.63;;;1.58;;
12587;SDS011;6359;51.450;7.346;2023-04-24T02:11:41;2.13;;;1.45;;
12587;SDS011;6359;51.450;7.346;2023-04-24T02:14:09;3.30;;;1.60;;
12587;SDS011;6359;51.450;7.346;2023-04-24T02:16:36;3.97;;;1.55;;
12587;SDS011;6359;51.450;7.346;2023-04-24T02:19:03;2.85;;;1.80;;
12587;SDS011;6359;51.450;7.346;2023-04-24T02:21:30;5.18;;;2.40;;
12587;SDS011;6359;51.450;7.346;2023-04-24T02:23:57;2.85;;;2.63;;
12587;SDS011;6359;51.450;7.346;2023-04-24T02:26:25;3.90;;;2.55;;
12587;SDS011;6359;51.450;7.346;2023-04-24T02:28:51;3.78;;;2.17;;
12587;SDS011;6359;51.450;7.346;2023-04-24T02:31:20;6.28;;;3.05;;
12587;SDS011;6359;51.450;7.346;2023-04-24T02:33:47;4.40;;;3.00;;
12587;SDS011;6359;51.450;7.346;2023-04-24T02:36:14;3.70;;;2.92;;
12587;SDS011;6359;51.450;7.346;2023-04-24T02:38:41;4.80;;;3.05;;
12587;SDS011;6359;51.450;7.346;2023-04-24T02:41:07;5.50;;;3.10;;
12587;SDS011;6359;51.450;7.346;2023-04-24T02:43:34;4.35;;;3.13;;
12587;SDS011;6359;51.450;7.346;2023-04-24T02:46:01;4.43;;;3.40;;
12587;SDS011;6359;51.450;7.346;2023-04-24T02:48:29;5.38;;;3.50;;
12587;SDS011;6359;51.450;7.346;2023-04-24T02:50:56;4.75;;;3.90;;
12587;SDS011;6359;51.450;7.346;2023-04-24T02:53:23;6.60;;;4.03;;
12587;SDS011;6359;51.450;7.346;2023-04-24T02:55:50;12.18;;;5.55;;
12587;SDS011;6359;51.450;7.346;2023-04-24T02:58:17;12.27;;;5.90;;
12587;SDS011;6359;51.450;7.346;2023-04-24T03:00:45;8.52;;;5.22;;
12587;SDS011;6359;51.450;7.346;2023-04-24T03:03:12;8.48;;;5.07;;
12587;SDS011;6359;51.450;7.346;2023-04-24T03:05:41;7.53;;;4.95;;
12587;SDS011;6359;51.450;7.346;2023-04-24T03:08:08;7.32;;;5.35;;
12587;SDS011;6359;51.450;7.346;2023-04-24T03:10:35;12.38;;;5.47;;
12587;SDS011;6359;51.450;7.346;2023-04-24T03:13:02;6.75;;;5.20;;
12587;SDS011;6359;51.450;7.346;2023-04-24T03:15:29;9.43;;;6.00;;
12587;SDS011;6359;51.450;7.346;2023-04-24T03:17:55;7.28;;;5.72;;
12587;SDS011;6359;51.450;7.346;2023-04-24T03:20:22;9.52;;;5.68;;
12587;SDS011;6359;51.450;7.346;2023-04-24T03:22:52;10.07;;;5.80;;
12587;SDS011;6359;51.450;7.346;2023-04-24T03:25:18;8.98;;;6.13;;
12587;SDS011;6359;51.450;7.346;2023-04-24T03:27:45;9.02;;;6.13;;
12587;SDS011;6359;51.450;7.346;2023-04-24T03:30:12;12.35;;;7.03;;
12587;SDS011;6359;51.450;7.346;2023-04-24T03:32:39;8.65;;;6.03;;
12587;SDS011;6359;51.450;7.346;2023-04-24T03:35:06;14.02;;;6.68;;
12587;SDS011;6359;51.450;7.346;2023-04-24T03:37:34;12.05;;;7.05;;
12587;SDS011;6359;51.450;7.346;2023-04-24T03:40:02;12.77;;;6.88;;
12587;SDS011;6359;51.450;7.346;2023-04-24T03:42:31;9.88;;;6.82;;
12587;SDS011;6359;51.450;7.346;2023-04-24T03:44:57;13.18;;;7.15;;
12587;SDS011;6359;51.450;7.346;2023-04-24T03:47:24;8.68;;;6.60;;
12587;SDS011;6359;51.450;7.346;2023-04-24T03:49:51;14.45;;;6.72;;
12587;SDS011;6359;51.450;7.346;2023-04-24T03:52:19;13.02;;;7.40;;
12587;SDS011;6359;51.450;7.346;2023-04-24T03:54:46;13.05;;;7.25;;
12587;SDS011;6359;51.450;7.346;2023-04-24T03:57:14;10.95;;;6.80;;
12587;SDS011;6359;51.450;7.346;2023-04-24T03:59:41;8.90;;;6.70;;
12587;SDS011;6359;51.450;7.346;2023-04-24T04:02:08;11.48;;;7.28;;
12587;SDS011;6359;51.450;7.346;2023-04-24T04:04:35;11.18;;;7.28;;
12587;SDS011;6359;51.450;7.346;2023-04-24T04:07:01;14.30;;;7.18;;
12587;SDS011;6359;51.450;7.346;2023-04-24T04:09:30;8.77;;;6.95;;
12587;SDS011;6359;51.450;7.346;2023-04-24T04:11:57;14.23;;;6.78;;
12587;SDS011;6359;51.450;7.346;2023-04-24T04:14:26;11.25;;;7.03;;
12587;SDS011;6359;51.450;7.346;2023-04-24T04:16:53;13.40;;;7.63;;
12587;SDS011;6359;51.450;7.346;2023-04-24T04:19:20;10.00;;;7.25;;
12587;SDS011;6359;51.450;7.346;2023-04-24T04:21:47;9.48;;;6.70;;
12587;SDS011;6359;51.450;7.346;2023-04-24T04:24:17;13.43;;;7.28;;
12587;SDS011;6359;51.450;7.346;2023-04-24T04:26:45;9.90;;;7.50;;
12587;SDS011;6359;51.450;7.346;2023-04-24T04:29:12;8.43;;;7.40;;
12587;SDS011;6359;51.450;7.346;2023-04-24T04:31:41;17.50;;;7.85;;
12587;SDS011;6359;51.450;7.346;2023-04-24T04:34:08;11.05;;;7.90;;
12587;SDS011;6359;51.450;7.346;2023-04-24T04:36:35;12.15;;;7.70;;
12587;SDS011;6359;51.450;7.346;2023-04-24T04:39:05;9.07;;;7.05;;
12587;SDS011;6359;51.450;7.346;2023-04-24T04:41:32;9.18;;;6.85;;
12587;SDS011;6359;51.450;7.346;2023-04-24T04:44:00;10.00;;;7.70;;
12587;SDS011;6359;51.450;7.346;2023-04-24T04:46:29;11.43;;;8.00;;
12587;SDS011;6359;51.450;7.346;2023-04-24T04:49:00;10.95;;;7.90;;
12587;SDS011;6359;51.450;7.346;2023-04-24T04:51:27;19.40;;;9.13;;
12587;SDS011;6359;51.450;7.346;2023-04-24T04:53:55;20.80;;;9.77;;
12587;SDS011;6359;51.450;7.346;2023-04-24T04:56:22;19.42;;;10.45;;
12587;SDS011;6359;51.450;7.346;2023-04-24T04:58:48;15.52;;;9.30;;
12587;SDS011;6359;51.450;7.346;2023-04-24T05:01:15;17.40;;;8.57;;
12587;SDS011;6359;51.450;7.346;2023-04-24T05:03:42;11.68;;;8.80;;
12587;SDS011;6359;51.450;7.346;2023-04-24T05:06:10;19.42;;;8.93;;
12587;SDS011;6359;51.450;7.346;2023-04-24T05:08:37;13.48;;;8.63;;
12587;SDS011;6359;51.450;7.346;2023-04-24T05:11:04;14.98;;;8.05;;
12587;SDS011;6359;51.450;7.346;2023-04-24T05:13:32;16.67;;;8.57;;
12587;SDS011;6359;51.450;7.346;2023-04-24T05:15:59;16.17;;;7.82;;
12587;SDS011;6359;51.450;7.346;2023-04-24T05:18:26;11.45;;;7.75;;
12587;SDS011;6359;51.450;7.346;2023-04-24T05:20:52;14.65;;;8.43;;
12587;SDS011;6359;51.450;7.346;2023-04-24T05:23:21;12.93;;;7.65;;
12587;SDS011;6359;51.450;7.346;2023-04-24T05:25:48;10.60;;;6.95;;
12587;SDS011;6359;51.450;7.346;2023-04-24T05:28:15;7.78;;;5.75;;
12587;SDS011;6359;51.450;7.346;2023-04-24T05:30:41;9.23;;;6.35;;
12587;SDS011;6359;51.450;7.346;2023-04-24T05:33:08;8.48;;;6.25;;
12587;SDS011;6359;51.450;7.346;2023-04-24T05:35:35;14.77;;;7.10;;
12587;SDS011;6359;51.450;7.346;2023-04-24T05:38:02;8.57;;;6.10;;
12587;SDS011;6359;51.450;7.346;2023-04-24T05:40:30;10.27;;;6.07;;
12587;SDS011;6359;51.450;7.346;2023-04-24T05:42:57;10.77;;;6.95;;
12587;SDS011;6359;51.450;7.346;2023-04-24T05:45:24;11.90;;;6.72;;
12587;SDS011;6359;51.450;7.346;2023-04-24T05:47:52;10.60;;;6.03;;
12587;SDS011;6359;51.450;7.346;2023-04-24T05:50:18;7.95;;;6.18;;
12587;SDS011;6359;51.450;7.346;2023-04-24T05:52:45;7.07;;;5.70;;
12587;SDS011;6359;51.450;7.346;2023-04-24T05:55:12;8.45;;;6.60;;
12587;SDS011;6359;51.450;7.346;2023-04-24T05:57:43;8.32;;;6.00;;
12587;SDS011;6359;51.450;7.346;2023-04-24T06:00:11;10.05;;;6.78;;
12587;SDS011;6359;51.450;7.346;2023-04-24T06:02:38;10.23;;;7.10;;
12587;SDS011;6359;51.450;7.346;2023-04-24T06:05:05;9.25;;;7.40;;
12587;SDS011;6359;51.450;7.346;2023-04-24T06:07:33;12.75;;;7.50;;
12587;SDS011;6359;51.450;7.346;2023-04-24T06:10:00;9.50;;;7.15;;
12587;SDS011;6359;51.450;7.346;2023-04-24T06:12:27;9.60;;;7.25;;
12587;SDS011;6359;51.450;7.346;2023-04-24T06:14:55;8.95;;;6.68;;
12587;SDS011;6359;51.450;7.346;2023-04-24T06:17:22;8.25;;;5.80;;
12587;SDS011;6359;51.450;7.346;2023-04-24T06:19:49;8.80;;;5.93;;
12587;SDS011;6359;51.450;7.346;2023-04-24T06:22:15;10.10;;;6.22;;
12587;SDS011;6359;51.450;7.346;2023-04-24T06:24:42;7.03;;;5.60;;
12587;SDS011;6359;51.450;7.346;2023-04-24T06:27:09;6.45;;;5.40;;
12587;SDS011;6359;51.450;7.346;2023-04-24T06:29:36;9.95;;;4.93;;
12587;SDS011;6359;51.450;7.346;2023-04-24T06:32:04;8.05;;;4.68;;
12587;SDS011;6359;51.450;7.346;2023-04-24T06:34:31;9.15;;;5.70;;
12587;SDS011;6359;51.450;7.346;2023-04-24T06:36:59;5.00;;;4.40;;
12587;SDS011;6359;51.450;7.346;2023-04-24T06:39:26;5.30;;;4.55;;
12587;SDS011;6359;51.450;7.346;2023-04-24T06:41:53;4.97;;;4.05;;
12587;SDS011;6359;51.450;7.346;2023-04-24T06:44:20;6.25;;;4.43;;
12587;SDS011;6359;51.450;7.346;2023-04-24T06:46:46;6.38;;;4.47;;
12587;SDS011;6359;51.450;7.346;2023-04-24T06:49:15;4.70;;;4.25;;
12587;SDS011;6359;51.450;7.346;2023-04-24T06:51:42;7.07;;;4.88;;
12587;SDS011;6359;51.450;7.346;2023-04-24T06:54:09;7.28;;;5.47;;
12587;SDS011;6359;51.450;7.346;2023-04-24T06:56:36;6.35;;;4.90;;
12587;SDS011;6359;51.450;7.346;2023-04-24T06:59:03;8.82;;;4.40;;
12587;SDS011;6359;51.450;7.346;2023-04-24T07:01:30;6.00;;;4.57;;
12587;SDS011;6359;51.450;7.346;2023-04-24T07:03:57;4.90;;;4.03;;
12587;SDS011;6359;51.450;7.346;2023-04-24T07:06:25;5.28;;;4.35;;
12587;SDS011;6359;51.450;7.346;2023-04-24T07:08:52;4.63;;;4.00;;
12587;SDS011;6359;51.450;7.346;2023-04-24T07:11:20;7.00;;;4.10;;
12587;SDS011;6359;51.450;7.346;2023-04-24T07:13:48;6.25;;;4.78;;
12587;SDS011;6359;51.450;7.346;2023-04-24T07:16:15;8.13;;;4.63;;
12587;SDS011;6359;51.450;7.346;2023-04-24T07:18:42;4.65;;;4.25;;
12587;SDS011;6359;51.450;7.346;2023-04-24T07:21:09;5.72;;;4.25;;
12587;SDS011;6359;51.450;7.346;2023-04-24T07:23:37;4.07;;;3.67;;
12587;SDS011;6359;51.450;7.346;2023-04-24T07:26:06;5.93;;;4.22;;
12587;SDS011;6359;51.450;7.346;2023-04-24T07:28:33;4.05;;;3.45;;
12587;SDS011;6359;51.450;7.346;2023-04-24T07:31:00;3.83;;;3.33;;
12587;SDS011;6359;51.450;7.346;2023-04-24T07:33:26;4.43;;;2.80;;
12587;SDS011;6359;51.450;7.346;2023-04-24T07:35:53;5.72;;;3.03;;
12587;SDS011;6359;51.450;7.346;2023-04-24T07:38:20;4.85;;;2.90;;
12587;SDS011;6359;51.450;7.346;2023-04-24T07:40:48;5.15;;;3.08;;
12587;SDS011;6359;51.450;7.346;2023-04-24T07:43:15;3.60;;;2.72;;
12587;SDS011;6359;51.450;7.346;2023-04-24T07:45:42;4.13;;;2.20;;
12587;SDS011;6359;51.450;7.346;2023-04-24T07:48:09;4.03;;;2.95;;
12587;SDS011;6359;51.450;7.346;2023-04-24T07:50:36;4.15;;;2.67;;
12587;SDS011;6359;51.450;7.346;2023-04-24T07:53:03;3.92;;;1.83;;
12587;SDS011;6359;51.450;7.346;2023-04-24T07:55:30;2.15;;;1.88;;
12587;SDS011;6359;51.450;7.346;2023-04-24T07:57:58;1.70;;;1.60;;
12587;SDS011;6359;51.450;7.346;2023-04-24T08:00:25;2.90;;;1.80;;
12587;SDS011;6359;51.450;7.346;2023-04-24T08:02:52;1.75;;;1.50;;
12587;SDS011;6359;51.450;7.346;2023-04-24T08:05:19;1.88;;;1.63;;
12587;SDS011;6359;51.450;7.346;2023-04-24T08:07:46;4.93;;;1.80;;
12587;SDS011;6359;51.450;7.346;2023-04-24T08:10:13;2.70;;;1.55;;
12587;SDS011;6359;51.450;7.346;2023-04-24T08:12:41;1.98;;;1.40;;
12587;SDS011;6359;51.450;7.346;2023-04-24T08:15:09;2.13;;;1.80;;
12587;SDS011;6359;51.450;7.346;2023-04-24T08:17:36;1.60;;;1.30;;
12587;SDS011;6359;51.450;7.346;2023-04-24T08:20:03;1.27;;;1.17;;
12587;SDS011;6359;51.450;7.346;2023-04-24T08:22:35;2.25;;;1.50;;
12587;SDS011;6359;51.450;7.346;2023-04-24T08:25:02;0.93;;;0.93;;
12587;SDS011;6359;51.450;7.346;2023-04-24T08:27:29;0.80;;;0.80;;
12587;SDS011;6359;51.450;7.346;2023-04-24T08:29:56;1.73;;;0.95;;
12587;SDS011;6359;51.450;7.346;2023-04-24T08:32:24;2.88;;;0.80;;
12587;SDS011;6359;51.450;7.346;2023-04-24T08:34:53;2.45;;;0.63;;
12587;SDS011;6359;51.450;7.346;2023-04-24T08:37:21;0.60;;;0.60;;
12587;SDS011;6359;51.450;7.346;2023-04-24T08:39:48;0.60;;;0.60;;
12587;SDS011;6359;51.450;7.346;2023-04-24T08:42:15;0.70;;;0.70;;
12587;SDS011;6359;51.450;7.346;2023-04-24T08:44:44;2.50;;;0.73;;
12587;SDS011;6359;51.450;7.346;2023-04-24T08:47:11;1.77;;;0.90;;
12587;SDS011;6359;51.450;7.346;2023-04-24T08:49:39;2.42;;;0.90;;
12587;SDS011;6359;51.450;7.346;2023-04-24T08:52:06;1.70;;;0.70;;
12587;SDS011;6359;51.450;7.346;2023-04-24T08:54:33;0.80;;;0.80;;
12587;SDS011;6359;51.450;7.346;2023-04-24T08:57:02;1.23;;;1.08;;
12587;SDS011;6359;51.450;7.346;2023-04-24T08:59:29;1.38;;;0.80;;
12587;SDS011;6359;51.450;7.346;2023-04-24T09:01:57;4.57;;;0.90;;
12587;SDS011;6359;51.450;7.346;2023-04-24T09:04:24;1.17;;;1.05;;
12587;SDS011;6359;51.450;7.346;2023-04-24T09:06:53;1.58;;;1.25;;
12587;SDS011;6359;51.450;7.346;2023-04-24T09:09:22;0.90;;;0.90;;
12587;SDS011;6359;51.450;7.346;2023-04-24T09:11:50;1.50;;;1.00;;
12587;SDS011;6359;51.450;7.346;2023-04-24T09:14:19;1.00;;;1.00;;
12587;SDS011;6359;51.450;7.346;2023-04-24T09:16:48;0.98;;;0.90;;
12587;SDS011;6359;51.450;7.346;2023-04-24T09:19:15;1.13;;;1.10;;
12587;SDS011;6359;51.450;7.346;2023-04-24T09:21:45;1.23;;;1.13;;
12587;SDS011;6359;51.450;7.346;2023-04-24T09:24:15;1.30;;;1.20;;
12587;SDS011;6359;51.450;7.346;2023-04-24T09:26:45;1.20;;;1.20;;
12587;SDS011;6359;51.450;7.346;2023-04-24T09:29:14;1.30;;;1.20;;
12587;SDS011;6359;51.450;7.346;2023-04-24T09:31:42;2.67;;;1.20;;
12587;SDS011;6359;51.450;7.346;2023-04-24T09:34:09;2.15;;;1.40;;
12587;SDS011;6359;51.450;7.346;2023-04-24T09:36:36;2.33;;;1.17;;
12587;SDS011;6359;51.450;7.346;2023-04-24T09:39:06;3.25;;;1.30;;
12587;SDS011;6359;51.450;7.346;2023-04-24T09:41:38;2.05;;;1.40;;
12587;SDS011;6359;51.450;7.346;2023-04-24T09:44:11;1.30;;;1.20;;
12587;SDS011;6359;51.450;7.346;2023-04-24T09:46:41;1.30;;;1.20;;
12587;SDS011;6359;51.450;7.346;2023-04-24T09:49:09;1.10;;;1.00;;
12587;SDS011;6359;51.450;7.346;2023-04-24T09:51:37;1.92;;;1.30;;
12587;SDS011;6359;51.450;7.346;2023-04-24T09:54:11;1.73;;;1.30;;
12587;SDS011;6359;51.450;7.346;2023-04-24T09:56:43;1.65;;;1.40;;
12587;SDS011;6359;51.450;7.346;2023-04-24T09:59:11;4.55;;;1.10;;
12587;SDS011;6359;51.450;7.346;2023-04-24T10:01:38;1.70;;;1.30;;
12587;SDS011;6359;51.450;7.346;2023-04-24T10:04:14;1.63;;;1.50;;
12587;SDS011;6359;51.450;7.346;2023-04-24T10:06:43;1.67;;;1.58;;
12587;SDS011;6359;51.450;7.346;2023-04-24T10:09:10;5.05;;;1.83;;
12587;SDS011;6359;51.450;7.346;2023-04-24T10:11:39;3.20;;;2.17;;
12587;SDS011;6359;51.450;7.346;2023-04-24T10:14:12;4.22;;;1.85;;
12587;SDS011;6359;51.450;7.346;2023-04-24T10:16:39;2.47;;;1.88;;
12587;SDS011;6359;51.450;7.346;2023-04-24T10:19:06;1.60;;;1.50;;
12587;SDS011;6359;51.450;7.346;2023-04-24T10:21:34;2.72;;;1.92;;
12587;SDS011;6359;51.450;7.346;2023-04-24T10:24:02;2.70;;;1.98;;
12587;SDS011;6359;51.450;7.346;2023-04-24T10:26:32;2.60;;;1.88;;
12587;SDS011;6359;51.450;7.346;2023-04-24T10:29:01;3.97;;;1.85;;
12587;SDS011;6359;51.450;7.346;2023-04-24T10:31:30;2.55;;;1.90;;
12587;SDS011;6359;51.450;7.346;2023-04-24T10:33:58;2.42;;;1.95;;
12587;SDS011;6359;51.450;7.346;2023-04-24T10:36:27;3.72;;;2.08;;
12587;SDS011;6359;51.450;7.346;2023-04-24T10:38:57;3.28;;;1.80;;
12587;SDS011;6359;51.450;7.346;2023-04-24T10:41:27;2.65;;;1.90;;
12587;SDS011;6359;51.450;7.346;2023-04-24T10:44:07;2.28;;;2.10;;
12587;SDS011;6359;51.450;7.346;2023-04-24T10:46:35;4.47;;;2.10;;
12587;SDS011;6359;51.450;7.346;2023-04-24T10:49:03;5.25;;;2.67;;
12587;SDS011;6359;51.450;7.346;2023-04-24T10:51:44;4.07;;;2.72;;
12587;SDS011;6359;51.450;7.346;2023-04-24T10:54:24;5.00;;;2.97;;
12587;SDS011;6359;51.450;7.346;2023-04-24T10:56:53;3.28;;;2.97;;
12587;SDS011;6359;51.450;7.346;2023-04-24T11:00:09;6.93;;;3.58;;
12587;SDS011;6359;51.450;7.346;2023-04-24T11:02:40;7.05;;;3.50;;
12587;SDS011;6359;51.450;7.346;2023-04-24T11:05:14;4.43;;;3.17;;
12587;SDS011;6359;51.450;7.346;2023-04-24T11:10:39;9.10;;;3.78;;
12587;SDS011;6359;51.450;7.346;2023-04-24T11:13:09;10.60;;;4.18;;
12587;SDS011;6359;51.450;7.346;2023-04-24T11:15:37;7.13;;;4.13;;
12587;SDS011;6359;51.450;7.346;2023-04-24T11:18:11;7.78;;;4.07;;
12587;SDS011;6359;51.450;7.346;2023-04-24T11:20:41;9.27;;;4.00;;
12587;SDS011;6359;51.450;7.346;2023-04-24T11:23:08;8.65;;;3.97;;
12587;SDS011;6359;51.450;7.346;2023-04-24T11:25:38;8.43;;;3.65;;
12587;SDS011;6359;51.450;7.346;2023-04-24T11:28:05;6.72;;;3.13;;
12587;SDS011;6359;51.450;7.346;2023-04-24T11:30:32;6.90;;;3.78;;
12587;SDS011;6359;51.450;7.346;2023-04-24T11:33:04;8.60;;;3.67;;
12587;SDS011;6359;51.450;7.346;2023-04-24T11:35:34;9.82;;;3.78;;
12587;SDS011;6359;51.450;7.346;2023-04-24T11:38:05;9.65;;;2.97;;
12587;SDS011;6359;51.450;7.346;2023-04-24T11:40:33;9.40;;;4.43;;
12587;SDS011;6359;51.450;7.346;2023-04-24T11:43:00;6.30;;;3.22;;
12587;SDS011;6359;51.450;7.346;2023-04-24T11:45:27;9.68;;;3.97;;
12587;SDS011;6359;51.450;7.346;2023-04-24T11:47:55;14.70;;;4.60;;
12587;SDS011;6359;51.450;7.346;2023-04-24T11:50:25;12.43;;;4.13;;
12587;SDS011;6359;51.450;7.346;2023-04-24T11:52:54;13.07;;;4.40;;
12587;SDS011;6359;51.450;7.346;2023-04-24T11:55:26;11.18;;;4.25;;
12587;SDS011;6359;51.450;7.346;2023-04-24T11:57:54;10.57;;;4.28;;
12587;SDS011;6359;51.450;7.346;2023-04-24T12:00:26;9.38;;;4.25;;
12587;SDS011;6359;51.450;7.346;2023-04-24T12:03:03;9.90;;;4.20;;
12587;SDS011;6359;51.450;7.346;2023-04-24T12:05:33;9.15;;;4.20;;
12587;SDS011;6359;51.450;7.346;2023-04-24T12:08:00;10.60;;;4.38;;
12587;SDS011;6359;51.450;7.346;2023-04-24T12:10:28;9.57;;;4.30;;
12587;SDS011;6359;51.450;7.346;2023-04-24T12:12:56;12.02;;;4.03;;
12587;SDS011;6359;51.450;7.346;2023-04-24T12:15:25;9.20;;;3.92;;
12587;SDS011;6359;51.450;7.346;2023-04-24T12:17:52;5.47;;;3.00;;
12587;SDS011;6359;51.450;7.346;2023-04-24T12:20:23;6.30;;;3.20;;
12587;SDS011;6359;51.450;7.346;2023-04-24T12:22:53;6.20;;;2.95;;
12587;SDS011;6359;51.450;7.346;2023-04-24T12:25:22;10.32;;;4.53;;
12587;SDS011;6359;51.450;7.346;2023-04-24T12:27:52;10.02;;;3.65;;
12587;SDS011;6359;51.450;7.346;2023-04-24T12:30:20;11.82;;;3.55;;
12587;SDS011;6359;51.450;7.346;2023-04-24T12:32:48;8.48;;;3.22;;
12587;SDS011;6359;51.450;7.346;2023-04-24T12:35:18;9.95;;;3.15;;
12587;SDS011;6359;51.450;7.346;2023-04-24T12:37:46;6.63;;;2.97;;
12587;SDS011;6359;51.450;7.346;2023-04-24T12:40:14;7.07;;;2.97;;
12587;SDS011;6359;51.450;7.346;2023-04-24T12:42:43;13.63;;;3.30;;
12587;SDS011;6359;51.450;7.346;2023-04-24T12:45:11;9.73;;;3.10;;
12587;SDS011;6359;51.450;7.346;2023-04-24T12:47:38;6.22;;;2.83;;
12587;SDS011;6359;51.450;7.346;2023-04-24T12:50:07;6.00;;;3.50;;
12587;SDS011;6359;51.450;7.346;2023-04-24T12:52:34;6.90;;;2.97;;
12587;SDS011;6359;51.450;7.346;2023-04-24T12:55:02;5.47;;;2.42;;
12587;SDS011;6359;51.450;7.346;2023-04-24T12:57:33;8.32;;;3.35;;
12587;SDS011;6359;51.450;7.346;2023-04-24T13:00:01;7.05;;;2.97;;
12587;SDS011;6359;51.450;7.346;2023-04-24T13:02:29;4.75;;;2.58;;
12587;SDS011;6359;51.450;7.346;2023-04-24T13:04:56;6.63;;;2.63;;
12587;SDS011;6359;51.450;7.346;2023-04-24T13:07:23;4.82;;;2.60;;
12587;SDS011;6359;51.450;7.346;2023-04-24T13:09:51;5.50;;;2.20;;
12587;SDS011;6359;51.450;7.346;2023-04-24T13:12:19;6.50;;;2.70;;
12587;SDS011;6359;51.450;7.346;2023-04-24T13:14:47;6.15;;;2.65;;
12587;SDS011;6359;51.450;7.346;2023-04-24T13:17:14;2.80;;;2.30;;
12587;SDS011;6359;51.450;7.346;2023-04-24T13:19:42;4.43;;;2.30;;
12587;SDS011;6359;51.450;7.346;2023-04-24T13:22:10;5.50;;;2.50;;
12587;SDS011;6359;51.450;7.346;2023-04-24T13:24:38;4.18;;;2.70;;
12587;SDS011;6359;51.450;7.346;2023-04-24T13:27:06;3.95;;;2.25;;
12587;SDS011;6359;51.450;7.346;2023-04-24T13:29:34;8.70;;;2.50;;
12587;SDS011;6359;51.450;7.346;2023-04-24T13:32:02;5.82;;;2.42;;
12587;SDS011;6359;51.450;7.346;2023-04-24T13:34:29;4.63;;;2.08;;
12587;SDS011;6359;51.450;7.346;2023-04-24T13:36:56;6.13;;;2.42;;
12587;SDS011;6359;51.450;7.346;2023-04-24T13:39:24;2.35;;;1.70;;
12587;SDS011;6359;51.450;7.346;2023-04-24T13:41:52;5.65;;;2.33;;
12587;SDS011;6359;51.450;7.346;2023-04-24T13:44:21;2.17;;;1.63;;
12587;SDS011;6359;51.450;7.346;2023-04-24T13:46:49;4.53;;;1.70;;
12587;SDS011;6359;51.450;7.346;2023-04-24T13:49:20;7.38;;;2.13;;
12587;SDS011;6359;51.450;7.346;2023-04-24T13:51:49;4.38;;;1.42;;
12587;SDS011;6359;51.450;7.346;2023-04-24T13:54:17;2.88;;;1.50;;
12587;SDS011;6359;51.450;7.346;2023-04-24T13:56:44;2.53;;;1.27;;
12587;SDS011;6359;51.450;7.346;2023-04-24T13:59:12;9.50;;;1.73;;
12587;SDS011;6359;51.450;7.346;2023-04-24T14:01:39;2.05;;;1.55;;
12587;SDS011;6359;51.450;7.346;2023-04-24T14:04:06;8.38;;;1.63;;
12587;SDS011;6359;51.450;7.346;2023-04-24T14:06:34;3.78;;;1.50;;
12587;SDS011;6359;51.450;7.346;2023-04-24T14:09:01;3.20;;;1.60;;
12587;SDS011;6359;51.450;7.346;2023-04-24T14:11:28;2.05;;;1.85;;
12587;SDS011;6359;51.450;7.346;2023-04-24T14:13:55;3.15;;;1.35;;
12587;SDS011;6359;51.450;7.346;2023-04-24T14:16:22;3.78;;;1.25;;
12587;SDS011;6359;51.450;7.346;2023-04-24T14:18:49;6.63;;;1.50;;
12587;SDS011;6359;51.450;7.346;2023-04-24T14:21:16;4.10;;;1.10;;
12587;SDS011;6359;51.450;7.346;2023-04-24T14:23:44;2.80;;;1.20;;
12587;SDS011;6359;51.450;7.346;2023-04-24T14:26:11;5.97;;;1.00;;
12587;SDS011;6359;51.450;7.346;2023-04-24T14:28:38;1.98;;;1.25;;
12587;SDS011;6359;51.450;7.346;2023-04-24T14:31:05;2.47;;;1.23;;
12587;SDS011;6359;51.450;7.346;2023-04-24T14:33:33;6.80;;;1.38;;
12587;SDS011;6359;51.450;7.346;2023-04-24T14:36:00;8.10;;;1.27;;
12587;SDS011;6359;51.450;7.346;2023-04-24T14:38:27;2.95;;;1.10;;
12587;SDS011;6359;51.450;7.346;2023-04-24T14:40:56;2.25;;;1.10;;
12587;SDS011;6359;51.450;7.346;2023-04-24T14:43:23;2.83;;;1.30;;
12587;SDS011;6359;51.450;7.346;2023-04-24T14:45:50;3.88;;;1.30;;
12587;SDS011;6359;51.450;7.346;2023-04-24T14:48:16;1.48;;;1.20;;
12587;SDS011;6359;51.450;7.346;2023-04-24T14:50:43;2.40;;;1.35;;
12587;SDS011;6359;51.450;7.346;2023-04-24T14:53:10;2.10;;;1.45;;
12587;SDS011;6359;51.450;7.346;2023-04-24T14:55:37;4.00;;;1.80;;
12587;SDS011;6359;51.450;7.346;2023-04-24T14:58:06;3.60;;;1.50;;
12587;SDS011;6359;51.450;7.346;2023-04-24T15:00:32;3.15;;;1.52;;
12587;SDS011;6359;51.450;7.346;2023-04-24T15:03:00;2.58;;;1.60;;
12587;SDS011;6359;51.450;7.346;2023-04-24T15:05:27;5.03;;;1.83;;